Time;durP1;ratioP1;P1;durP2;ratioP2;P2;SDS_P1;SDS_P2;PMS_P1;PMS_P2;Temp;Humidity;BMP_temperature;BMP_pressure;BME280_temperature;BME280_humidity;BME280_pressure;Samples;Min_cycle;Max_cycle;Signal;HPM_P1;HPM_P2
2023/03/02 00:02:39;;;;;;;;;;;;;;;1.32;100.00;101027.78;5589619;31;34466;-67
2023/03/02 00:05:48;;;;;;;;;;;;;;;1.23;100.00;101020.50;5589599;31;34362;-67
2023/03/02 00:08:59;;;;;;;;;;;;;;;1.14;100.00;101011.44;5589573;31;34378;-67
2023/03/02 00:12:05;;;;;;;;;;;;;;;1.08;100.00;101010.97;5576204;31;34194;-67
2023/03/02 00:15:14;;;;;;;;;;;;;;;0.99;100.00;101016.75;5588920;31;34300;-67
2023/03/02 00:18:21;;;;;;;;;;;;;;;0.86;100.00;101014.88;5589007;31;33212;-67
2023/03/02 00:21:27;;;;;;;;;;;;;;;1.06;100.00;101023.28;5588852;31;34938;-67
2023/03/02 00:24:33;;;;;;;;;;;;;;;1.07;100.00;101014.50;5589625;31;34892;-67
2023/03/02 00:27:41;;;;;;;;;;;;;;;1.06;100.00;101010.22;5589407;31;34247;-67
2023/03/02 00:30:49;;;;;;;;;;;;;;;1.03;100.00;101007.78;5589292;31;34407;-67
2023/03/02 00:33:54;;;;;;;;;;;;;;;0.86;100.00;101003.56;5589393;31;34805;-68
2023/03/02 00:37:06;;;;;;;;;;;;;;;0.74;100.00;100992.06;5587049;31;34839;-67
2023/03/02 00:40:15;;;;;;;;;;;;;;;0.73;100.00;100997.38;5589305;31;34319;-67
2023/03/02 00:43:26;;;;;;;;;;;;;;;0.84;100.00;100977.53;5588664;31;34008;-66
2023/03/02 00:46:37;;;;;;;;;;;;;;;0.82;100.00;100982.00;5576186;31;34945;-66
2023/03/02 00:49:47;;;;;;;;;;;;;;;0.87;100.00;100985.19;5575878;31;33082;-67
2023/03/02 00:52:52;;;;;;;;;;;;;;;0.91;100.00;100990.25;5588463;31;34651;-66
2023/03/02 00:55:59;;;;;;;;;;;;;;;1.09;100.00;100981.28;5575761;31;33805;-66
2023/03/02 00:59:25;;;;;;;;;;;;;;;0.99;100.00;100988.84;5575822;31;33235;-66
2023/03/02 01:02:32;;;;;;;;;;;;;;;0.83;100.00;100973.25;5588953;31;34500;-66
2023/03/02 01:05:43;;;;;;;;;;;;;;;0.86;100.00;100970.47;5589046;31;34491;-66
2023/03/02 01:08:50;;;;;;;;;;;;;;;0.77;100.00;100971.00;5588927;31;34871;-66
2023/03/02 01:12:00;;;;;;;;;;;;;;;0.92;100.00;100965.81;5587904;31;34521;-65
2023/03/02 01:15:09;;;;;;;;;;;;;;;0.90;100.00;100959.81;5588162;31;34186;-66
2023/03/02 01:18:17;;;;;;;;;;;;;;;0.84;100.00;100956.66;5588261;31;35537;-66
2023/03/02 01:21:27;;;;;;;;;;;;;;;0.81;100.00;100956.84;5575496;31;34322;-66
2023/03/02 01:24:35;;;;;;;;;;;;;;;0.78;100.00;100954.38;5588800;31;34943;-66
2023/03/02 01:27:43;;;;;;;;;;;;;;;0.74;100.00;100950.28;5588002;31;34674;-66
2023/03/02 01:30:53;;;;;;;;;;;;;;;0.68;100.00;100942.81;5588577;31;34955;-66
2023/03/02 01:34:00;;;;;;;;;;;;;;;0.73;100.00;100937.31;5575049;31;34658;-66
2023/03/02 01:37:10;;;;;;;;;;;;;;;0.71;100.00;100932.19;5575138;31;34109;-66
2023/03/02 01:40:20;;;;;;;;;;;;;;;0.75;100.00;100922.41;5575566;31;33203;-66
2023/03/02 01:43:31;;;;;;;;;;;;;;;0.71;100.00;100919.16;5588541;31;34620;-65
2023/03/02 01:46:38;;;;;;;;;;;;;;;0.79;100.00;100923.91;5587705;31;33490;-66
2023/03/02 01:49:56;;;;;;;;;;;;;;;0.78;100.00;100920.44;5589678;31;34353;-66
2023/03/02 01:53:09;;;;;;;;;;;;;;;0.60;100.00;100920.69;5577904;31;32876;-66
2023/03/02 01:56:18;;;;;;;;;;;;;;;0.55;100.00;100917.53;5589861;31;34352;-66
2023/03/02 01:59:28;;;;;;;;;;;;;;;0.47;100.00;100918.00;5590028;31;34142;-66
2023/03/02 02:02:40;;;;;;;;;;;;;;;0.46;100.00;100903.25;5590614;31;34345;-65
2023/03/02 02:05:57;;;;;;;;;;;;;;;0.49;100.00;100905.66;5590638;31;34413;-66
2023/03/02 02:09:05;;;;;;;;;;;;;;;0.48;100.00;100901.41;5589649;31;34975;-66
2023/03/02 02:12:17;;;;;;;;;;;;;;;0.49;100.00;100892.62;5589718;31;34022;-65
2023/03/02 02:15:31;;;;;;;;;;;;;;;0.51;100.00;100897.75;5591029;31;34314;-66
2023/03/02 02:18:41;;;;;;;;;;;;;;;0.34;100.00;100891.75;5590451;31;34172;-66
2023/03/02 02:21:50;;;;;;;;;;;;;;;0.45;100.00;100893.75;5589913;31;34284;-66
2023/03/02 02:24:58;;;;;;;;;;;;;;;0.38;100.00;100890.66;5590480;31;34882;-66
2023/03/02 02:28:07;;;;;;;;;;;;;;;0.44;100.00;100892.06;5589680;31;34782;-66
2023/03/02 02:31:27;;;;;;;;;;;;;;;0.34;100.00;100891.75;5589360;31;33966;-66
2023/03/02 02:34:40;;;;;;;;;;;;;;;0.28;100.00;100893.91;5589653;31;34316;-66
2023/03/02 02:37:52;;;;;;;;;;;;;;;0.16;100.00;100894.59;5576839;31;33309;-66
2023/03/02 02:41:07;;;;;;;;;;;;;;;0.13;100.00;100890.41;5590543;31;34367;-66
2023/03/02 02:44:17;;;;;;;;;;;;;;;0.00;100.00;100892.88;5590265;31;34975;-66
2023/03/02 02:47:24;;;;;;;;;;;;;;;0.15;100.00;100885.09;5590236;31;34865;-66
2023/03/02 02:50:37;;;;;;;;;;;;;;;0.03;100.00;100894.47;5590207;31;34340;-66
2023/03/02 02:53:57;;;;;;;;;;;;;;;0.20;100.00;100878.69;5589553;31;33895;-65
2023/03/02 02:57:10;;;;;;;;;;;;;;;0.19;100.00;100884.84;5589368;31;34688;-66
2023/03/02 03:00:25;;;;;;;;;;;;;;;0.06;100.00;100886.47;5589831;31;34370;-65
2023/03/02 03:03:34;;;;;;;;;;;;;;;0.07;100.00;100890.78;5590208;31;34124;-66
2023/03/02 03:06:52;;;;;;;;;;;;;;;-0.05;100.00;100881.88;5589385;31;34257;-66
2023/03/02 03:10:10;;;;;;;;;;;;;;;-0.24;100.00;100880.44;5589254;31;33342;-66
2023/03/02 03:13:17;;;;;;;;;;;;;;;-0.17;100.00;100872.16;5589376;31;34356;-65
2023/03/02 03:16:26;;;;;;;;;;;;;;;0.00;100.00;100886.84;5576466;31;35417;-65
2023/03/02 03:19:34;;;;;;;;;;;;;;;-0.06;100.00;100879.38;5589381;31;33810;-65
2023/03/02 03:22:40;;;;;;;;;;;;;;;-0.05;100.00;100883.66;5589225;31;34734;-66
2023/03/02 03:25:48;;;;;;;;;;;;;;;-0.11;100.00;100878.78;5590008;31;34578;-66
2023/03/02 03:28:58;;;;;;;;;;;;;;;-0.15;100.00;100882.50;5589163;31;34877;-66
2023/03/02 03:32:06;;;;;;;;;;;;;;;-0.25;100.00;100882.19;5576657;31;34504;-66
2023/03/02 03:35:17;;;;;;;;;;;;;;;-0.12;100.00;100885.78;5590038;31;34381;-66
2023/03/02 03:38:23;;;;;;;;;;;;;;;-0.12;100.00;100880.56;5590062;31;34268;-67
2023/03/02 03:41:36;;;;;;;;;;;;;;;-0.01;100.00;100883.41;5588968;31;33390;-67
2023/03/02 03:44:46;;;;;;;;;;;;;;;0.13;100.00;100874.75;5589110;31;34337;-67
2023/03/02 03:47:55;;;;;;;;;;;;;;;0.02;100.00;100886.75;5564604;31;34785;-67
2023/03/02 03:51:06;;;;;;;;;;;;;;;-0.02;100.00;100884.31;5589996;31;33871;-68
2023/03/02 03:54:14;;;;;;;;;;;;;;;0.03;100.00;100894.47;5589921;31;34964;-67
2023/03/02 03:57:24;;;;;;;;;;;;;;;-0.04;100.00;100893.97;5589041;31;34746;-67
2023/03/02 04:00:31;;;;;;;;;;;;;;;-0.14;100.00;100898.03;5588478;31;34955;-67
2023/03/02 04:03:41;;;;;;;;;;;;;;;-0.18;100.00;100895.69;5589500;31;34271;-67
2023/03/02 04:06:50;;;;;;;;;;;;;;;-0.24;100.00;100894.28;5550699;31;1223495;-67
2023/03/02 04:10:02;;;;;;;;;;;;;;;-0.15;100.00;100896.38;5588471;31;34786;-67
2023/03/02 04:13:11;;;;;;;;;;;;;;;-0.31;100.00;100887.75;5589366;31;34361;-67
2023/03/02 04:16:20;;;;;;;;;;;;;;;-0.44;100.00;100890.19;5589760;31;34282;-67
2023/03/02 04:19:25;;;;;;;;;;;;;;;-0.38;100.00;100893.38;5589584;31;34908;-67
2023/03/02 04:22:38;;;;;;;;;;;;;;;-0.36;100.00;100891.53;5589711;31;34721;-66
2023/03/02 04:25:45;;;;;;;;;;;;;;;-0.46;100.00;100886.84;5589626;31;34404;-66
2023/03/02 04:28:56;;;;;;;;;;;;;;;-0.60;100.00;100893.72;5588800;31;34180;-66
2023/03/02 04:32:01;;;;;;;;;;;;;;;-0.61;100.00;100900.72;5588894;31;34144;-66
2023/03/02 04:35:13;;;;;;;;;;;;;;;-0.72;100.00;100889.19;5589552;31;34828;-66
2023/03/02 04:38:21;;;;;;;;;;;;;;;-0.75;100.00;100889.34;5589840;31;34985;-66
2023/03/02 04:41:28;;;;;;;;;;;;;;;-0.76;100.00;100896.31;5588752;31;34974;-67
2023/03/02 04:44:37;;;;;;;;;;;;;;;-0.77;100.00;100892.03;5589256;31;35242;-67
2023/03/02 04:47:45;;;;;;;;;;;;;;;-0.81;100.00;100885.31;5575782;31;34111;-66
2023/03/02 04:50:52;;;;;;;;;;;;;;;-0.87;100.00;100880.44;5589317;31;34953;-67
2023/03/02 04:54:02;;;;;;;;;;;;;;;-0.75;100.00;100879.78;5575882;31;35448;-67
2023/03/02 04:57:11;;;;;;;;;;;;;;;-0.65;100.00;100882.72;5589238;31;34711;-67
2023/03/02 05:00:19;;;;;;;;;;;;;;;-0.52;100.00;100888.94;5575645;31;33592;-67
2023/03/02 05:03:27;;;;;;;;;;;;;;;-0.66;100.00;100875.81;5575574;31;34536;-67
2023/03/02 05:06:35;;;;;;;;;;;;;;;-0.58;100.00;100882.28;5589113;31;34245;-67
2023/03/02 05:09:44;;;;;;;;;;;;;;;-0.54;100.00;100882.97;5589026;31;34633;-67
2023/03/02 05:13:01;;;;;;;;;;;;;;;-0.39;100.00;100886.50;5575835;31;35530;-67
2023/03/02 05:16:08;;;;;;;;;;;;;;;-0.39;100.00;100889.94;5575523;31;35425;-67
2023/03/02 05:19:18;;;;;;;;;;;;;;;-0.27;100.00;100893.63;5589139;31;34812;-66
2023/03/02 05:22:27;;;;;;;;;;;;;;;-0.27;100.00;100889.25;5575293;31;35285;-67
2023/03/02 05:25:38;;;;;;;;;;;;;;;-0.45;100.00;100885.91;5587246;31;35040;-67
2023/03/02 05:28:43;;;;;;;;;;;;;;;-0.52;100.00;100887.16;5588119;31;34792;-67
2023/03/02 05:31:55;;;;;;;;;;;;;;;-0.68;100.00;100880.28;5588989;31;33974;-67
2023/03/02 05:35:04;;;;;;;;;;;;;;;-0.80;100.00;100884.41;5588165;31;34177;-66
2023/03/02 05:38:14;;;;;;;;;;;;;;;-0.73;100.00;100888.37;5575226;31;34532;-67
2023/03/02 05:41:21;;;;;;;;;;;;;;;-0.76;100.00;100896.31;5587894;31;34906;-66
2023/03/02 05:44:31;;;;;;;;;;;;;;;-0.72;100.00;100892.62;5588353;31;34064;-66
2023/03/02 05:47:41;;;;;;;;;;;;;;;-0.65;100.00;100900.97;5588387;31;34857;-66
2023/03/02 05:50:50;;;;;;;;;;;;;;;-0.67;100.00;100906.25;5587774;31;34021;-66
2023/03/02 05:53:56;;;;;;;;;;;;;;;-0.70;100.00;100901.22;5588518;31;34352;-68
2023/03/02 05:57:06;;;;;;;;;;;;;;;-0.68;100.00;100901.97;5588524;31;34780;-66
2023/03/02 06:00:12;;;;;;;;;;;;;;;-0.49;100.00;100907.03;5587435;31;34944;-66
2023/03/02 06:03:20;;;;;;;;;;;;;;;-0.16;100.00;100907.75;5588461;31;34316;-67
2023/03/02 06:06:26;;;;;;;;;;;;;;;-0.12;100.00;100919.66;5587294;31;34500;-66
2023/03/02 06:09:33;;;;;;;;;;;;;;;0.02;100.00;100915.44;5586810;31;32862;-67
2023/03/02 06:12:40;;;;;;;;;;;;;;;0.17;100.00;100919.78;5587787;31;34339;-67
2023/03/02 06:15:48;;;;;;;;;;;;;;;0.28;100.00;100925.22;5587802;31;34204;-67
2023/03/02 06:18:55;;;;;;;;;;;;;;;0.46;100.00;100924.13;5587924;31;34439;-66
2023/03/02 06:22:02;;;;;;;;;;;;;;;0.69;100.00;100925.37;5587406;31;34909;-67
2023/03/02 06:25:07;;;;;;;;;;;;;;;0.79;100.00;100919.50;5586751;31;34977;-67
2023/03/02 06:28:17;;;;;;;;;;;;;;;0.98;100.00;100924.47;5561801;31;33471;-66
2023/03/02 06:31:23;;;;;;;;;;;;;;;1.11;100.00;100922.78;5587475;31;34652;-66
2023/03/02 06:34:30;;;;;;;;;;;;;;;1.18;100.00;100924.09;5586030;31;35476;-66
2023/03/02 06:37:37;;;;;;;;;;;;;;;1.33;100.00;100931.91;5589507;31;34918;-68
2023/03/02 06:40:48;;;;;;;;;;;;;;;1.38;100.00;100940.31;5577342;31;32408;-69
2023/03/02 06:43:53;;;;;;;;;;;;;;;1.41;100.00;100943.56;5589074;31;34392;-67
2023/03/02 06:46:58;;;;;;;;;;;;;;;1.61;100.00;100945.75;5589667;31;34904;-67
2023/03/02 06:50:03;;;;;;;;;;;;;;;1.87;100.00;100943.28;5589762;31;34545;-67
2023/03/02 06:53:08;;;;;;;;;;;;;;;2.11;100.00;100950.38;5589401;31;34296;-67
2023/03/02 06:56:15;;;;;;;;;;;;;;;2.70;100.00;100949.97;5589572;31;34938;-67
2023/03/02 06:59:19;;;;;;;;;;;;;;;3.10;100.00;100942.84;5590460;31;34378;-67
2023/03/02 07:02:23;;;;;;;;;;;;;;;2.79;100.00;100939.69;5589714;31;34154;-68
2023/03/02 07:05:30;;;;;;;;;;;;;;;2.46;100.00;100941.97;5589777;31;33896;-68
2023/03/02 07:08:35;;;;;;;;;;;;;;;2.30;100.00;100944.75;5575439;31;33195;-68
2023/03/02 07:11:40;;;;;;;;;;;;;;;2.32;100.00;100950.75;5588891;31;34453;-67
2023/03/02 07:14:43;;;;;;;;;;;;;;;2.31;100.00;100950.84;5588884;31;33469;-67
2023/03/02 07:17:49;;;;;;;;;;;;;;;2.36;100.00;100943.53;5589990;31;34231;-68
2023/03/02 07:20:52;;;;;;;;;;;;;;;2.45;100.00;100951.63;5589970;31;34404;-67
2023/03/02 07:24:00;;;;;;;;;;;;;;;2.45;100.00;100951.63;5589169;31;34209;-67
2023/03/02 07:27:04;;;;;;;;;;;;;;;2.51;100.00;100958.22;5589530;31;34210;-67
2023/03/02 07:30:10;;;;;;;;;;;;;;;2.71;100.00;100959.50;5589248;31;34798;-67
2023/03/02 07:33:15;;;;;;;;;;;;;;;2.77;100.00;100948.59;5588967;31;33813;-67
2023/03/02 07:36:20;;;;;;;;;;;;;;;2.83;100.00;100950.81;5589697;31;34023;-67
2023/03/02 07:39:23;;;;;;;;;;;;;;;2.98;97.46;100944.50;5589735;31;34199;-67
2023/03/02 07:42:28;;;;;;;;;;;;;;;3.14;93.94;100934.66;5588982;31;34185;-67
2023/03/02 07:45:37;;;;;;;;;;;;;;;3.31;91.72;100944.78;5576254;31;33544;-66
2023/03/02 07:48:42;;;;;;;;;;;;;;;3.77;89.66;100937.12;5575316;31;33210;-67
2023/03/02 07:51:49;;;;;;;;;;;;;;;4.71;77.46;100937.94;5589644;31;34959;-67
2023/03/02 07:54:56;;;;;;;;;;;;;;;5.61;68.42;100933.53;5589862;31;34355;-67
2023/03/02 07:57:59;;;;;;;;;;;;;;;7.21;60.10;100934.19;5589806;31;34339;-67
2023/03/02 08:01:03;;;;;;;;;;;;;;;9.11;51.76;100934.41;5589685;31;34105;-67
2023/03/02 08:04:08;;;;;;;;;;;;;;;11.27;45.85;100929.66;5589080;31;34250;-68
2023/03/02 08:07:13;;;;;;;;;;;;;;;11.42;42.56;100934.38;5588782;31;34440;-68
2023/03/02 08:10:27;;;;;;;;;;;;;;;10.95;40.92;100931.28;5588725;31;34311;-68
2023/03/02 08:13:32;;;;;;;;;;;;;;;12.09;38.30;100934.28;5589954;31;34262;-68
2023/03/02 08:16:37;;;;;;;;;;;;;;;9.90;41.34;100941.84;5589063;31;34630;-68
2023/03/02 08:19:41;;;;;;;;;;;;;;;11.18;38.62;100943.06;5589430;31;34222;-69
2023/03/02 08:22:45;;;;;;;;;;;;;;;10.22;39.80;100938.69;5588843;31;34652;-68
2023/03/02 08:25:51;;;;;;;;;;;;;;;10.27;39.31;100942.56;5589634;31;34368;-68
2023/03/02 08:28:58;;;;;;;;;;;;;;;10.81;38.21;100941.50;5588801;31;34312;-69
2023/03/02 08:32:02;;;;;;;;;;;;;;;12.24;37.08;100938.94;5575635;31;34494;-69
2023/03/02 08:35:08;;;;;;;;;;;;;;;14.34;33.88;100944.44;5588662;31;34230;-68
2023/03/02 08:38:12;;;;;;;;;;;;;;;12.11;36.48;100936.75;5588641;31;34209;-69
2023/03/02 08:41:18;;;;;;;;;;;;;;;11.69;37.05;100934.12;5589725;31;34377;-70
2023/03/02 08:44:22;;;;;;;;;;;;;;;12.89;35.05;100931.75;5588725;31;34328;-69
2023/03/02 08:47:25;;;;;;;;;;;;;;;15.36;31.56;100923.44;5589213;31;34298;-69
2023/03/02 08:50:31;;;;;;;;;;;;;;;17.57;27.89;100932.88;5588623;31;34239;-69
2023/03/02 08:53:37;;;;;;;;;;;;;;;15.73;30.14;100927.88;5588335;31;34419;-70
2023/03/02 08:56:42;;;;;;;;;;;;;;;13.28;33.79;100915.88;5575145;31;33648;-69
2023/03/02 08:59:46;;;;;;;;;;;;;;;12.05;34.79;100911.63;5588000;31;34243;-69
2023/03/02 09:02:50;;;;;;;;;;;;;;;10.98;36.96;100923.03;5589596;31;34282;-69
2023/03/02 09:05:55;;;;;;;;;;;;;;;9.87;39.13;100919.13;5587865;31;34489;-69
2023/03/02 09:08:58;;;;;;;;;;;;;;;9.03;42.75;100907.84;5588080;31;34445;-69
2023/03/02 09:12:03;;;;;;;;;;;;;;;7.97;43.24;100907.16;5588387;31;34839;-68
2023/03/02 09:15:08;;;;;;;;;;;;;;;8.03;44.25;100905.75;5588991;31;34228;-68
2023/03/02 09:18:12;;;;;;;;;;;;;;;7.54;44.91;100906.66;5588281;31;34786;-67
2023/03/02 09:21:18;;;;;;;;;;;;;;;7.59;46.28;100897.38;5588188;31;34984;-68
2023/03/02 09:24:24;;;;;;;;;;;;;;;7.53;46.21;100899.72;5562640;31;34584;-68
2023/03/02 09:27:28;;;;;;;;;;;;;;;7.65;45.63;100898.63;5588734;31;33041;-67
2023/03/02 09:30:32;;;;;;;;;;;;;;;7.57;45.71;100899.28;5588579;31;33448;-68
2023/03/02 09:33:36;;;;;;;;;;;;;;;7.27;46.71;100892.25;5588668;31;34270;-67
2023/03/02 09:36:41;;;;;;;;;;;;;;;7.21;45.91;100890.16;5587621;31;34333;-67
2023/03/02 09:39:48;;;;;;;;;;;;;;;7.17;46.32;100887.91;5588454;31;34969;-67
2023/03/02 09:43:03;;;;;;;;;;;;;;;7.11;46.15;100891.09;5587845;31;33783;-67
2023/03/02 09:46:28;;;;;;;;;;;;;;;7.33;46.61;100883.81;5587809;31;34238;-68
2023/03/02 09:49:31;;;;;;;;;;;;;;;7.51;47.04;100891.06;5586973;31;33581;-68
2023/03/02 09:52:39;;;;;;;;;;;;;;;7.73;46.73;100883.78;5588389;31;34183;-67
2023/03/02 09:55:45;;;;;;;;;;;;;;;7.81;46.96;100875.16;5588198;31;34497;-68
2023/03/02 09:58:58;;;;;;;;;;;;;;;7.86;46.66;100876.41;5574414;31;34318;-67
2023/03/02 10:02:19;;;;;;;;;;;;;;;7.93;46.25;100871.41;5587059;31;34341;-67
2023/03/02 10:05:35;;;;;;;;;;;;;;;7.97;46.51;100878.09;5587168;31;34210;-67
2023/03/02 10:08:39;;;;;;;;;;;;;;;8.04;46.84;100871.25;5586916;31;34315;-66
2023/03/02 10:11:47;;;;;;;;;;;;;;;8.05;45.78;100866.81;5589015;31;34461;-67
2023/03/02 10:14:57;;;;;;;;;;;;;;;8.01;46.26;100863.63;5589726;31;34288;-67
2023/03/02 10:18:22;;;;;;;;;;;;;;;8.27;45.26;100870.00;5589517;31;34311;-67
2023/03/02 10:21:36;;;;;;;;;;;;;;;8.24;46.04;100859.69;5590129;31;34970;-66
2023/03/02 10:25:05;;;;;;;;;;;;;;;8.31;45.59;100862.66;5589490;31;34194;-66
2023/03/02 10:28:12;;;;;;;;;;;;;;;8.40;45.93;100863.59;5589822;31;34632;-67
2023/03/02 10:31:22;;;;;;;;;;;;;;;8.74;45.85;100854.19;5590140;31;34445;-67
2023/03/02 10:34:30;;;;;;;;;;;;;;;8.67;45.36;100855.75;5589760;31;34275;-68
2023/03/02 10:37:35;;;;;;;;;;;;;;;8.74;45.88;100851.56;5589595;31;34224;-68
2023/03/02 10:40:42;;;;;;;;;;;;;;;8.87;44.80;100849.41;5589352;31;34297;-67
2023/03/02 10:43:50;;;;;;;;;;;;;;;8.88;44.53;100845.78;5590386;31;34116;-66
2023/03/02 10:46:54;;;;;;;;;;;;;;;8.93;45.42;100848.00;5589733;31;34660;-68
2023/03/02 10:49:58;;;;;;;;;;;;;;;8.82;45.55;100841.06;5589334;31;33098;-67
2023/03/02 10:53:02;;;;;;;;;;;;;;;8.91;45.80;100837.53;5589297;31;34980;-68
2023/03/02 10:56:17;;;;;;;;;;;;;;;8.98;45.97;100833.34;5577052;31;33440;-68
2023/03/02 10:59:24;;;;;;;;;;;;;;;9.15;44.87;100834.38;5589669;31;35183;-68
2023/03/02 11:02:31;;;;;;;;;;;;;;;9.33;43.94;100829.13;5589318;31;32689;-66
2023/03/02 11:05:36;;;;;;;;;;;;;;;9.38;46.09;100816.28;5589406;31;32488;-68
2023/03/02 11:08:40;;;;;;;;;;;;;;;9.46;46.43;100811.06;5576327;31;34462;-67
2023/03/02 11:12:02;;;;;;;;;;;;;;;9.67;46.02;100808.12;5576458;31;33104;-67
2023/03/02 11:15:33;;;;;;;;;;;;;;;9.85;45.24;100807.13;5590171;31;34809;-67
2023/03/02 11:18:42;;;;;;;;;;;;;;;10.17;46.22;100801.28;5588108;31;34380;-67
2023/03/02 11:21:47;;;;;;;;;;;;;;;11.16;45.67;100793.66;5589225;31;34150;-67
2023/03/02 11:24:55;;;;;;;;;;;;;;;13.73;40.41;100797.84;5576495;31;33974;-68
2023/03/02 11:28:04;;;;;;;;;;;;;;;16.62;35.59;100804.09;5576220;31;34235;-68
2023/03/02 11:31:14;;;;;;;;;;;;;;;18.49;32.04;100787.25;5575258;31;34784;-68
2023/03/02 11:34:26;;;;;;;;;;;;;;;22.49;27.06;100800.63;5589874;31;35672;-69
2023/03/02 11:37:44;;;;;;;;;;;;;;;21.90;27.50;100804.31;5590134;31;34706;-69
2023/03/02 11:40:52;;;;;;;;;;;;;;;24.19;24.67;100796.19;5589988;31;35463;-69
2023/03/02 11:43:58;;;;;;;;;;;;;;;26.22;22.61;100790.47;5576178;31;33060;-68
2023/03/02 11:47:03;;;;;;;;;;;;;;;25.85;23.17;100787.72;5588895;31;34294;-69
2023/03/02 11:50:11;;;;;;;;;;;;;;;25.94;23.62;100784.25;5588966;31;34308;-69
2023/03/02 11:53:18;;;;;;;;;;;;;;;21.59;26.67;100773.00;5576215;31;34323;-69
2023/03/02 11:56:24;;;;;;;;;;;;;;;22.46;26.82;100771.38;5590236;31;32805;-69
2023/03/02 11:59:29;;;;;;;;;;;;;;;20.83;29.12;100768.97;5589916;31;34904;-70
2023/03/02 12:02:32;;;;;;;;;;;;;;;19.70;29.99;100764.03;5575740;31;33319;-69
2023/03/02 12:05:38;;;;;;;;;;;;;;;21.13;29.21;100755.56;5589103;31;33315;-68
2023/03/02 12:08:44;;;;;;;;;;;;;;;23.09;26.82;100759.75;5588802;31;34206;-70
2023/03/02 12:12:00;;;;;;;;;;;;;;;22.20;27.58;100758.31;5589006;31;34648;-69
2023/03/02 12:15:24;;;;;;;;;;;;;;;24.22;25.83;100763.16;5588989;31;34276;-69
2023/03/02 12:18:30;;;;;;;;;;;;;;;24.99;24.53;100757.72;5589386;31;34429;-69
2023/03/02 12:21:38;;;;;;;;;;;;;;;24.90;25.19;100753.81;5575815;31;32953;-69
2023/03/02 12:24:44;;;;;;;;;;;;;;;26.26;23.33;100748.91;5588560;31;34253;-69
2023/03/02 12:27:50;;;;;;;;;;;;;;;26.47;22.73;100751.75;5589612;31;34820;-69
2023/03/02 12:31:00;;;;;;;;;;;;;;;23.74;25.78;100746.63;5589463;31;34234;-70
2023/03/02 12:34:21;;;;;;;;;;;;;;;25.70;23.99;100744.09;5589517;31;33431;-70
2023/03/02 12:37:25;;;;;;;;;;;;;;;25.35;24.48;100741.81;5575663;31;34239;-70
2023/03/02 12:40:48;;;;;;;;;;;;;;;25.92;23.73;100737.47;5589454;31;34950;-70
2023/03/02 12:44:05;;;;;;;;;;;;;;;26.75;23.10;100744.00;5589272;31;34233;-70
2023/03/02 12:47:14;;;;;;;;;;;;;;;25.06;24.73;100739.34;5589486;31;34299;-70
2023/03/02 12:50:24;;;;;;;;;;;;;;;28.38;21.84;100731.41;5575518;31;33159;-69
2023/03/02 12:53:27;;;;;;;;;;;;;;;26.55;22.78;100733.00;5575741;31;34243;-69
2023/03/02 12:56:34;;;;;;;;;;;;;;;22.36;27.84;100723.31;5588827;31;34893;-68
2023/03/02 12:59:38;;;;;;;;;;;;;;;22.49;27.55;100717.63;5588536;31;33029;-68
2023/03/02 13:02:47;;;;;;;;;;;;;;;21.73;28.79;100706.12;5575681;31;34011;-68
2023/03/02 13:05:51;;;;;;;;;;;;;;;23.58;26.48;100704.91;5588295;31;34963;-68
2023/03/02 13:08:56;;;;;;;;;;;;;;;20.75;30.38;100704.56;5588825;31;34543;-69
2023/03/02 13:11:59;;;;;;;;;;;;;;;19.19;32.29;100703.03;5589312;31;34177;-68
2023/03/02 13:15:12;;;;;;;;;;;;;;;19.01;32.07;100700.25;5589042;31;34924;-67
2023/03/02 13:18:18;;;;;;;;;;;;;;;17.82;33.75;100688.97;5589068;31;34879;-68
2023/03/02 13:21:28;;;;;;;;;;;;;;;17.46;35.14;100689.38;5575253;31;34252;-67
2023/03/02 13:24:34;;;;;;;;;;;;;;;15.96;37.20;100680.50;5589054;31;34268;-67
2023/03/02 13:27:38;;;;;;;;;;;;;;;15.94;38.13;100679.84;5588239;31;34984;-67
2023/03/02 13:30:46;;;;;;;;;;;;;;;16.45;37.91;100684.91;5575079;31;33900;-66
2023/03/02 13:33:53;;;;;;;;;;;;;;;18.12;34.53;100673.25;5588785;31;34532;-66
2023/03/02 13:36:57;;;;;;;;;;;;;;;19.02;32.58;100675.84;5588649;31;35034;-67
2023/03/02 13:40:04;;;;;;;;;;;;;;;19.61;31.75;100669.22;5588482;31;34886;-66
2023/03/02 13:43:23;;;;;;;;;;;;;;;20.30;30.37;100665.47;5588337;31;34404;-66
2023/03/02 13:46:34;;;;;;;;;;;;;;;19.88;31.05;100667.97;5589817;31;34690;-66
2023/03/02 13:49:39;;;;;;;;;;;;;;;17.81;33.88;100655.94;5589790;31;32670;-66
2023/03/02 13:52:45;;;;;;;;;;;;;;;18.52;33.36;100649.78;5589788;31;33100;-66
2023/03/02 13:55:51;;;;;;;;;;;;;;;16.81;36.63;100645.31;5590785;31;34715;-66
2023/03/02 13:58:57;;;;;;;;;;;;;;;16.44;37.22;100643.09;5589805;31;33656;-66
2023/03/02 14:02:18;;;;;;;;;;;;;;;18.43;33.45;100645.69;5590689;31;33896;-66
2023/03/02 14:05:25;;;;;;;;;;;;;;;20.61;30.72;100649.19;5589902;31;34253;-65
2023/03/02 14:08:31;;;;;;;;;;;;;;;21.04;29.92;100634.69;5589880;31;35280;-66
2023/03/02 14:11:44;;;;;;;;;;;;;;;19.83;31.05;100626.59;5590306;31;34784;-66
2023/03/02 14:14:51;;;;;;;;;;;;;;;18.29;34.37;100631.50;5590649;31;34865;-65
2023/03/02 14:17:57;;;;;;;;;;;;;;;19.17;33.15;100619.03;5589663;31;34656;-66
2023/03/02 14:21:02;;;;;;;;;;;;;;;16.02;38.09;100618.16;5590143;31;34126;-66
2023/03/02 14:24:08;;;;;;;;;;;;;;;14.25;42.12;100611.09;5589882;31;34232;-66
2023/03/02 14:27:15;;;;;;;;;;;;;;;13.99;42.67;100608.09;5590373;31;34750;-66
2023/03/02 14:30:21;;;;;;;;;;;;;;;12.79;45.07;100598.28;5589576;31;34851;-67
2023/03/02 14:33:26;;;;;;;;;;;;;;;12.31;46.76;100600.25;5589902;31;33063;-66
2023/03/02 14:36:33;;;;;;;;;;;;;;;12.63;46.66;100602.72;5590436;31;34249;-66
2023/03/02 14:39:51;;;;;;;;;;;;;;;12.34;47.36;100607.06;5590303;31;34539;-65
2023/03/02 14:42:59;;;;;;;;;;;;;;;12.11;47.84;100604.31;5590216;31;34939;-65
2023/03/02 14:46:04;;;;;;;;;;;;;;;11.99;48.13;100605.69;5576699;31;33044;-65
2023/03/02 14:49:08;;;;;;;;;;;;;;;11.67;48.82;100598.59;5590516;31;34919;-66
2023/03/02 14:52:29;;;;;;;;;;;;;;;11.63;49.29;100594.62;5589887;31;34233;-65
2023/03/02 14:55:35;;;;;;;;;;;;;;;11.53;49.70;100599.28;5588826;31;34757;-65
2023/03/02 14:58:40;;;;;;;;;;;;;;;11.53;49.95;100594.81;5589473;31;34609;-65
2023/03/02 15:01:45;;;;;;;;;;;;;;;11.59;49.43;100590.66;5590293;31;34894;-65
2023/03/02 15:04:53;;;;;;;;;;;;;;;11.65;49.37;100587.31;5589389;31;34895;-65
2023/03/02 15:07:59;;;;;;;;;;;;;;;11.40;50.30;100594.50;5576269;31;33683;-65
2023/03/02 15:11:07;;;;;;;;;;;;;;;11.31;51.12;100585.72;5589943;31;34981;-65
2023/03/02 15:14:12;;;;;;;;;;;;;;;11.32;51.01;100586.53;5589773;31;34114;-66
2023/03/02 15:17:17;;;;;;;;;;;;;;;11.23;50.77;100587.56;5588932;31;34281;-66
2023/03/02 15:20:24;;;;;;;;;;;;;;;11.15;51.01;100590.19;5589742;31;34248;-66
2023/03/02 15:23:30;;;;;;;;;;;;;;;11.07;51.82;100590.19;5588539;31;34515;-65
2023/03/02 15:26:35;;;;;;;;;;;;;;;10.95;51.98;100588.84;5589103;31;34325;-66
2023/03/02 15:29:44;;;;;;;;;;;;;;;10.90;52.14;100587.53;5589539;31;35627;-66
2023/03/02 15:32:52;;;;;;;;;;;;;;;10.93;52.90;100585.56;5589466;31;34288;-65
2023/03/02 15:35:57;;;;;;;;;;;;;;;10.93;53.01;100580.25;5589308;31;34949;-66
2023/03/02 15:39:03;;;;;;;;;;;;;;;10.87;53.02;100597.66;5589229;31;34938;-65
2023/03/02 15:42:07;;;;;;;;;;;;;;;10.75;52.67;100599.78;5588295;31;34356;-65
2023/03/02 15:45:15;;;;;;;;;;;;;;;10.69;53.06;100592.50;5589415;31;34919;-66
2023/03/02 15:48:19;;;;;;;;;;;;;;;10.57;53.38;100601.75;5588601;31;33037;-66
2023/03/02 15:51:24;;;;;;;;;;;;;;;10.48;54.21;100591.28;5588498;31;34822;-65
2023/03/02 15:54:30;;;;;;;;;;;;;;;10.37;54.68;100593.22;5588779;31;34290;-66
2023/03/02 15:57:39;;;;;;;;;;;;;;;10.21;55.23;100595.84;5588547;31;34047;-64
2023/03/02 16:00:46;;;;;;;;;;;;;;;10.14;55.46;100597.44;5576214;31;33540;-64
2023/03/02 16:03:58;;;;;;;;;;;;;;;10.06;55.57;100591.28;5588657;31;33066;-66
2023/03/02 16:07:03;;;;;;;;;;;;;;;9.97;56.02;100595.72;5588895;31;34241;-65